Terminal Aerodrome Forecast (TAF)

TAF


TAF for:NVSC (Vanua Lava/Sola Airport) issued at 1000 UTC 25 Apr 2018
Text:TAF NVSC 251000Z 2512/2612 VRB02KT 9999 SCT020 INTER 2512/2518 8000 SHRA BKN016 OVC038
Forecast period:1200 UTC 25 April 2018 to 1200 UTC 26 April 2018
Forecast type:FROM: standard forecast or significant change
Winds:variable direction winds at 2 MPH (2 knots; 1.0 m/s)
Visibility:6 or more sm (10+ km)
Ceiling:at least 12,000 feet AGL
Clouds: scattered clouds at 2000 feet AGL
Text:
Forecast period:1200 to 1800 UTC 25 April 2018
Forecast type:TEMPORARY: The following changes expected for less than half the time period
Visibility: 5 sm ( 8 km)
Ceiling:1600 feet AGL
Clouds: broken clouds at 1600 feet AGL, overcast cloud deck at 3800 feet AGL
Weather:SHRA (rain showers)

TAF


TAF for:NVSG (Ambae/Longana Airport) issued at 1000 UTC 25 Apr 2018
Text:TAF NVSG 251000Z 2512/2612 VRB02KT 9999 SCT020
Forecast period:1200 UTC 25 April 2018 to 1200 UTC 26 April 2018
Forecast type:FROM: standard forecast or significant change
Winds:variable direction winds at 2 MPH (2 knots; 1.0 m/s)
Visibility:6 or more sm (10+ km)
Ceiling:at least 12,000 feet AGL
Clouds: scattered clouds at 2000 feet AGL
Text:PROB30 INTER 2512/2518 9000 -SHRA BKN018
Forecast period:1200 to 1800 UTC 25 April 2018
Forecast type:TEMPORARY: The following changes expected for less than half the time period
Visibility: 6 sm ( 9 km)
Ceiling:1800 feet AGL
Clouds: broken clouds at 1800 feet AGL
Weather:-SHRA (light rain showers)

TAF


TAF for:NVSS (Santo/Pekoa International Airport) issued at 1000 UTC 25 Apr 2018
Text:TAF NVSS 251000Z 2512/2612 VRB02KT 9999 SCT020
Forecast period:1200 UTC 25 April 2018 to 1200 UTC 26 April 2018
Forecast type:FROM: standard forecast or significant change
Winds:variable direction winds at 2 MPH (2 knots; 1.0 m/s)
Visibility:6 or more sm (10+ km)
Ceiling:at least 12,000 feet AGL
Clouds: scattered clouds at 2000 feet AGL
Text:PROB30 INTER 2512/2518 9000 -SHRA BKN018
Forecast period:1200 to 1800 UTC 25 April 2018
Forecast type:TEMPORARY: The following changes expected for less than half the time period
Visibility: 6 sm ( 9 km)
Ceiling:1800 feet AGL
Clouds: broken clouds at 1800 feet AGL
Weather:-SHRA (light rain showers)

TAF


TAF for:NVSL (Malekula/Lamap Airport) issued at 1000 UTC 25 Apr 2018
Text:TAF NVSL 251000Z 2512/2612 VRB02KT 9999 SCT020
Forecast period:1200 UTC 25 April 2018 to 1200 UTC 26 April 2018
Forecast type:FROM: standard forecast or significant change
Winds:variable direction winds at 2 MPH (2 knots; 1.0 m/s)
Visibility:6 or more sm (10+ km)
Ceiling:at least 12,000 feet AGL
Clouds: scattered clouds at 2000 feet AGL
Text:PROB30 INTER 2512/2518 9000 -SHRA BKN018
Forecast period:1200 to 1800 UTC 25 April 2018
Forecast type:TEMPORARY: The following changes expected for less than half the time period
Visibility: 6 sm ( 9 km)
Ceiling:1800 feet AGL
Clouds: broken clouds at 1800 feet AGL
Weather:-SHRA (light rain showers)

TAF


TAF for:NVSP (Malekula/Norsup Airport) (Norsup Arpt, --, NV) issued at 1000 UTC 25 Apr 2018
Text:TAF NVSP (Malekula/Norsup Airport) 251000Z 2512/2612 VRB02KT 9999 SCT020
Forecast period:1200 UTC 25 April 2018 to 1200 UTC 26 April 2018
Forecast type:FROM: standard forecast or significant change
Winds:variable direction winds at 2 MPH (2 knots; 1.0 m/s)
Visibility:6 or more sm (10+ km)
Ceiling:at least 12,000 feet AGL
Clouds: scattered clouds at 2000 feet AGL
Text:PROB30 INTER 2512/2518 9000 -SHRA BKN018
Forecast period:1200 to 1800 UTC 25 April 2018
Forecast type:TEMPORARY: The following changes expected for less than half the time period
Visibility: 6 sm ( 9 km)
Ceiling:1800 feet AGL
Clouds: broken clouds at 1800 feet AGL
Weather:-SHRA (light rain showers)

TAF


TAF for:NVVV (Efate/Bauerfield International Airport) issued at 1000 UTC 25 Apr 2018
Text:TAF NVVV 251000Z 2512/2612 VRB02KT 9999 SCT020 OVC120
Forecast period:1200 UTC 25 April 2018 to 1200 UTC 26 April 2018
Forecast type:FROM: standard forecast or significant change
Winds:variable direction winds at 2 MPH (2 knots; 1.0 m/s)
Visibility:6 or more sm (10+ km)
Ceiling:12000 feet AGL
Clouds: scattered clouds at 2000 feet AGL, overcast cloud deck at 12000 feet AGL
Text:PROB30 INTER 2512/2518 9000 -SHRA BKN018
Forecast period:1200 to 1800 UTC 25 April 2018
Forecast type:TEMPORARY: The following changes expected for less than half the time period
Visibility: 6 sm ( 9 km)
Ceiling:1800 feet AGL
Clouds: broken clouds at 1800 feet AGL
Weather:-SHRA (light rain showers)

TAF


TAF for:NVVW (Tanna/WhiteGrass International Airport) issued at 1000 UTC 25 Apr 2018
Text:TAF NVVW 251000Z 2512/2612 VRB02KT 9999 SCT020 OVC120
Forecast period:1200 UTC 25 April 2018 to 1200 UTC 26 April 2018
Forecast type:FROM: standard forecast or significant change
Winds:variable direction winds at 2 MPH (2 knots; 1.0 m/s)
Visibility:6 or more sm (10+ km)
Ceiling:12000 feet AGL
Clouds: scattered clouds at 2000 feet AGL, overcast cloud deck at 12000 feet AGL
Text:PROB30 INTER 2512/2518 9000 -SHRA BKN018
Forecast period:1200 to 1800 UTC 25 April 2018
Forecast type:TEMPORARY: The following changes expected for less than half the time period
Visibility: 6 sm ( 9 km)
Ceiling:1800 feet AGL
Clouds: broken clouds at 1800 feet AGL
Weather:-SHRA (light rain showers)

TAF


TAF for:NVVA (Aneityum/Anelcahuat Airport) issued at 1000 UTC 25 Apr 2018
Text:TAF NVVA 251000Z 2512/2612 VRB02KT 9999 SCT020 OVC120
Forecast period:1200 UTC 25 April 2018 to 1200 UTC 26 April 2018
Forecast type:FROM: standard forecast or significant change
Winds:variable direction winds at 2 MPH (2 knots; 1.0 m/s)
Visibility:6 or more sm (10+ km)
Ceiling:12000 feet AGL
Clouds: scattered clouds at 2000 feet AGL, overcast cloud deck at 12000 feet AGL
Text:PROB30 INTER 2512/2518 9000 -SHRA BKN018
Forecast period:1200 to 1800 UTC 25 April 2018
Forecast type:TEMPORARY: The following changes expected for less than half the time period
Visibility: 6 sm ( 9 km)
Ceiling:1800 feet AGL
Clouds: broken clouds at 1800 feet AGL
Weather:-SHRA (light rain showers)

TAF

ADDS TAF Data INFO
IDs: Format: Raw Decoded Include METARs

Data at: 1020 UTC 25 Apr 2018

TAF NVSC 251000Z 2512/2612 VRB02KT 9999 SCT020 INTER 2512/2518 8000 SHRA BKN016 OVC038
 TAF NVSG 251000Z 2512/2612 VRB02KT 9999 SCT020
  PROB30 INTER 2512/2518 9000 -SHRA BKN018

 TAF NVSS 251000Z 2512/2612 VRB02KT 9999 SCT020
  PROB30 INTER 2512/2518 9000 -SHRA BKN018

 TAF NVSL 251000Z 2512/2612 VRB02KT 9999 SCT020
  PROB30 INTER 2512/2518 9000 -SHRA BKN018

 TAF NVSP 251000Z 2512/2612 VRB02KT 9999 SCT020
  PROB30 INTER 2512/2518 9000 -SHRA BKN018

 TAF NVVV 251000Z 2512/2612 VRB02KT 9999 SCT020 OVC120
  PROB30 INTER 2512/2518 9000 -SHRA BKN018

 TAF NVVW 251000Z 2512/2612 VRB02KT 9999 SCT020 OVC120
  PROB30 INTER 2512/2518 9000 -SHRA BKN018

 TAF NVVA 251000Z 2512/2612 VRB02KT 9999 SCT020 OVC120
  PROB30 INTER 2512/2518 9000 -SHRA BKN018